sensor_id;sensor_type;location;lat;lon;timestamp;pressure;altitude;pressure_sealevel;temperature;humidity
64080;BME280;51042;49.696;10.808;2022-07-09T00:01:47;99529.94;;;17.95;61.69
64080;BME280;51042;49.696;10.808;2022-07-09T00:04:13;99522.53;;;17.92;61.69
64080;BME280;51042;49.696;10.808;2022-07-09T00:06:38;99521.75;;;17.92;63.29
64080;BME280;51042;49.696;10.808;2022-07-09T00:09:03;99522.81;;;17.85;63.46
64080;BME280;51042;49.696;10.808;2022-07-09T00:11:29;99533.22;;;17.72;64.93
64080;BME280;51042;49.696;10.808;2022-07-09T00:13:54;99532.50;;;17.59;64.58
64080;BME280;51042;49.696;10.808;2022-07-09T00:16:19;99527.88;;;17.56;64.49
64080;BME280;51042;49.696;10.808;2022-07-09T00:18:45;99524.44;;;17.52;64.54
64080;BME280;51042;49.696;10.808;2022-07-09T00:21:10;99517.47;;;17.38;65.60
64080;BME280;51042;49.696;10.808;2022-07-09T00:23:35;99520.34;;;17.35;64.82
64080;BME280;51042;49.696;10.808;2022-07-09T00:26:01;99520.03;;;17.33;64.56
64080;BME280;51042;49.696;10.808;2022-07-09T00:28:26;99517.09;;;17.27;65.67
64080;BME280;51042;49.696;10.808;2022-07-09T00:30:51;99509.91;;;17.17;65.84
64080;BME280;51042;49.696;10.808;2022-07-09T00:33:17;99510.19;;;17.10;65.84
64080;BME280;51042;49.696;10.808;2022-07-09T00:35:42;99519.34;;;16.98;66.33
64080;BME280;51042;49.696;10.808;2022-07-09T00:38:07;99518.25;;;16.95;66.59
64080;BME280;51042;49.696;10.808;2022-07-09T00:40:33;99513.59;;;16.92;66.59
64080;BME280;51042;49.696;10.808;2022-07-09T00:42:59;99509.41;;;16.88;66.75
64080;BME280;51042;49.696;10.808;2022-07-09T00:45:25;99508.75;;;16.84;66.78
64080;BME280;51042;49.696;10.808;2022-07-09T00:47:51;99502.44;;;16.83;67.37
64080;BME280;51042;49.696;10.808;2022-07-09T00:50:16;99510.31;;;16.85;67.04
64080;BME280;51042;49.696;10.808;2022-07-09T00:52:42;99509.72;;;16.90;66.78
64080;BME280;51042;49.696;10.808;2022-07-09T00:55:08;99510.50;;;16.90;66.44
64080;BME280;51042;49.696;10.808;2022-07-09T00:57:36;99508.03;;;16.92;66.82
64080;BME280;51042;49.696;10.808;2022-07-09T01:00:02;99504.88;;;16.81;67.45
64080;BME280;51042;49.696;10.808;2022-07-09T01:02:28;99509.09;;;16.86;67.62
64080;BME280;51042;49.696;10.808;2022-07-09T01:04:53;99494.66;;;16.91;67.05
64080;BME280;51042;49.696;10.808;2022-07-09T01:07:19;99502.81;;;16.94;66.80
64080;BME280;51042;49.696;10.808;2022-07-09T01:09:44;99499.16;;;16.97;67.00
64080;BME280;51042;49.696;10.808;2022-07-09T01:12:10;99497.66;;;17.05;66.78
64080;BME280;51042;49.696;10.808;2022-07-09T01:14:35;99493.22;;;17.08;67.42
64080;BME280;51042;49.696;10.808;2022-07-09T01:17:01;99488.56;;;17.05;67.37
64080;BME280;51042;49.696;10.808;2022-07-09T01:19:29;99490.84;;;16.97;68.20
64080;BME280;51042;49.696;10.808;2022-07-09T01:21:56;99490.97;;;16.94;67.82
64080;BME280;51042;49.696;10.808;2022-07-09T01:24:23;99491.53;;;16.89;68.68
64080;BME280;51042;49.696;10.808;2022-07-09T01:26:49;99481.66;;;16.88;68.57
64080;BME280;51042;49.696;10.808;2022-07-09T01:29:14;99478.59;;;16.86;68.17
64080;BME280;51042;49.696;10.808;2022-07-09T01:31:40;99488.91;;;16.85;68.47
64080;BME280;51042;49.696;10.808;2022-07-09T01:34:05;99480.59;;;16.85;69.67
64080;BME280;51042;49.696;10.808;2022-07-09T01:36:31;99475.28;;;16.78;69.46
64080;BME280;51042;49.696;10.808;2022-07-09T01:38:57;99477.88;;;16.72;69.81
64080;BME280;51042;49.696;10.808;2022-07-09T01:41:22;99479.09;;;16.71;70.01
64080;BME280;51042;49.696;10.808;2022-07-09T01:43:47;99477.53;;;16.70;70.05
64080;BME280;51042;49.696;10.808;2022-07-09T01:46:13;99474.56;;;16.65;69.29
64080;BME280;51042;49.696;10.808;2022-07-09T01:48:38;99467.38;;;16.67;69.63
64080;BME280;51042;49.696;10.808;2022-07-09T01:51:08;99467.81;;;16.66;69.51
64080;BME280;51042;49.696;10.808;2022-07-09T01:53:35;99461.94;;;16.64;69.55
64080;BME280;51042;49.696;10.808;2022-07-09T01:56:07;99462.84;;;16.61;69.62
64080;BME280;51042;49.696;10.808;2022-07-09T01:58:34;99462.63;;;16.55;69.50
64080;BME280;51042;49.696;10.808;2022-07-09T02:01:01;99456.09;;;16.49;69.77
64080;BME280;51042;49.696;10.808;2022-07-09T02:03:27;99456.34;;;16.42;70.44
64080;BME280;51042;49.696;10.808;2022-07-09T02:05:52;99456.78;;;16.41;70.33
64080;BME280;51042;49.696;10.808;2022-07-09T02:08:18;99460.13;;;16.36;70.74
64080;BME280;51042;49.696;10.808;2022-07-09T02:10:43;99440.53;;;16.30;70.45
64080;BME280;51042;49.696;10.808;2022-07-09T02:13:11;99452.97;;;16.25;70.91
64080;BME280;51042;49.696;10.808;2022-07-09T02:15:37;99448.31;;;16.22;71.01
64080;BME280;51042;49.696;10.808;2022-07-09T02:18:03;99450.28;;;16.22;71.37
64080;BME280;51042;49.696;10.808;2022-07-09T02:20:29;99453.06;;;16.22;71.14
64080;BME280;51042;49.696;10.808;2022-07-09T02:22:55;99451.84;;;16.23;70.87
64080;BME280;51042;49.696;10.808;2022-07-09T02:25:20;99450.63;;;16.24;71.22
64080;BME280;51042;49.696;10.808;2022-07-09T02:27:45;99446.66;;;16.25;71.17
64080;BME280;51042;49.696;10.808;2022-07-09T02:30:11;99444.31;;;16.23;71.28
64080;BME280;51042;49.696;10.808;2022-07-09T02:32:36;99447.53;;;16.22;71.23
64080;BME280;51042;49.696;10.808;2022-07-09T02:35:03;99445.09;;;16.24;71.12
64080;BME280;51042;49.696;10.808;2022-07-09T02:37:29;99448.50;;;16.28;71.08
64080;BME280;51042;49.696;10.808;2022-07-09T02:39:54;99442.53;;;16.29;71.09
64080;BME280;51042;49.696;10.808;2022-07-09T02:42:20;99447.44;;;16.25;70.86
64080;BME280;51042;49.696;10.808;2022-07-09T02:44:45;99445.09;;;16.24;71.19
64080;BME280;51042;49.696;10.808;2022-07-09T02:47:11;99448.63;;;16.24;71.48
64080;BME280;51042;49.696;10.808;2022-07-09T02:49:36;99447.22;;;16.20;71.37
64080;BME280;51042;49.696;10.808;2022-07-09T02:52:02;99446.09;;;16.17;71.80
64080;BME280;51042;49.696;10.808;2022-07-09T02:54:27;99447.91;;;16.11;72.02
64080;BME280;51042;49.696;10.808;2022-07-09T02:56:53;99448.91;;;16.05;72.43
64080;BME280;51042;49.696;10.808;2022-07-09T02:59:19;99449.91;;;15.98;72.69
64080;BME280;51042;49.696;10.808;2022-07-09T03:01:44;99455.81;;;15.87;74.05
64080;BME280;51042;49.696;10.808;2022-07-09T03:04:10;99450.06;;;15.82;74.04
64080;BME280;51042;49.696;10.808;2022-07-09T03:06:35;99444.94;;;15.80;74.35
64080;BME280;51042;49.696;10.808;2022-07-09T03:09:01;99441.09;;;15.78;73.99
64080;BME280;51042;49.696;10.808;2022-07-09T03:11:26;99448.94;;;15.79;74.75
64080;BME280;51042;49.696;10.808;2022-07-09T03:13:52;99441.41;;;15.80;74.30
64080;BME280;51042;49.696;10.808;2022-07-09T03:16:17;99438.06;;;15.85;74.22
64080;BME280;51042;49.696;10.808;2022-07-09T03:18:42;99440.75;;;15.88;74.33
64080;BME280;51042;49.696;10.808;2022-07-09T03:21:08;99443.06;;;15.90;74.48
64080;BME280;51042;49.696;10.808;2022-07-09T03:23:34;99439.84;;;15.91;74.09
64080;BME280;51042;49.696;10.808;2022-07-09T03:25:59;99439.84;;;15.91;74.22
64080;BME280;51042;49.696;10.808;2022-07-09T03:28:24;99439.19;;;15.87;75.06
64080;BME280;51042;49.696;10.808;2022-07-09T03:30:50;99441.75;;;15.82;74.61
64080;BME280;51042;49.696;10.808;2022-07-09T03:33:15;99444.94;;;15.80;74.70
64080;BME280;51042;49.696;10.808;2022-07-09T03:35:40;99443.63;;;15.85;74.49
64080;BME280;51042;49.696;10.808;2022-07-09T03:38:06;99439.63;;;15.86;74.20
64080;BME280;51042;49.696;10.808;2022-07-09T03:40:32;99433.78;;;15.84;74.22
64080;BME280;51042;49.696;10.808;2022-07-09T03:42:57;99436.84;;;15.86;74.03
64080;BME280;51042;49.696;10.808;2022-07-09T03:45:23;99441.31;;;15.83;73.90
64080;BME280;51042;49.696;10.808;2022-07-09T03:47:48;99440.84;;;15.85;74.60
64080;BME280;51042;49.696;10.808;2022-07-09T03:50:14;99443.63;;;15.85;74.70
64080;BME280;51042;49.696;10.808;2022-07-09T03:52:40;99445.84;;;15.90;74.56
64080;BME280;51042;49.696;10.808;2022-07-09T03:55:05;99441.63;;;15.85;74.33
64080;BME280;51042;49.696;10.808;2022-07-09T03:57:31;99443.94;;;15.87;74.02
64080;BME280;51042;49.696;10.808;2022-07-09T03:59:57;99442.28;;;15.89;74.21
64080;BME280;51042;49.696;10.808;2022-07-09T04:02:22;99447.72;;;15.93;74.03
64080;BME280;51042;49.696;10.808;2022-07-09T04:04:48;99436.06;;;15.98;73.86
64080;BME280;51042;49.696;10.808;2022-07-09T04:07:13;99438.06;;;15.98;73.81
64080;BME280;51042;49.696;10.808;2022-07-09T04:09:39;99435.19;;;16.01;73.83
64080;BME280;51042;49.696;10.808;2022-07-09T04:12:04;99443.50;;;16.01;73.68
64080;BME280;51042;49.696;10.808;2022-07-09T04:14:30;99439.59;;;15.99;74.39
64080;BME280;51042;49.696;10.808;2022-07-09T04:16:55;99436.75;;;16.02;73.71
64080;BME280;51042;49.696;10.808;2022-07-09T04:19:20;99442.34;;;16.11;73.43
64080;BME280;51042;49.696;10.808;2022-07-09T04:21:46;99432.91;;;16.21;73.04
64080;BME280;51042;49.696;10.808;2022-07-09T04:24:11;99434.22;;;16.29;72.92
64080;BME280;51042;49.696;10.808;2022-07-09T04:26:36;99440.19;;;16.28;72.99
64080;BME280;51042;49.696;10.808;2022-07-09T04:29:02;99441.88;;;16.25;72.70
64080;BME280;51042;49.696;10.808;2022-07-09T04:31:27;99434.66;;;16.28;72.66
64080;BME280;51042;49.696;10.808;2022-07-09T04:33:52;99445.84;;;16.37;71.94
64080;BME280;51042;49.696;10.808;2022-07-09T04:36:18;99437.59;;;16.46;71.81
64080;BME280;51042;49.696;10.808;2022-07-09T04:38:43;99447.66;;;16.53;71.62
64080;BME280;51042;49.696;10.808;2022-07-09T04:41:08;99443.63;;;16.66;71.28
64080;BME280;51042;49.696;10.808;2022-07-09T04:43:34;99436.94;;;16.77;71.16
64080;BME280;51042;49.696;10.808;2022-07-09T04:45:59;99445.44;;;16.82;70.84
64080;BME280;51042;49.696;10.808;2022-07-09T04:48:24;99435.56;;;16.81;71.56
64080;BME280;51042;49.696;10.808;2022-07-09T04:50:50;99433.00;;;16.65;72.84
64080;BME280;51042;49.696;10.808;2022-07-09T04:53:16;99438.47;;;16.78;72.11
64080;BME280;51042;49.696;10.808;2022-07-09T04:55:41;99432.34;;;16.83;72.05
64080;BME280;51042;49.696;10.808;2022-07-09T04:58:06;99440.19;;;17.06;71.12
64080;BME280;51042;49.696;10.808;2022-07-09T05:00:32;99442.63;;;17.26;70.18
64080;BME280;51042;49.696;10.808;2022-07-09T05:02:58;99433.88;;;17.36;69.67
64080;BME280;51042;49.696;10.808;2022-07-09T05:05:24;99432.38;;;17.44;69.41
64080;BME280;51042;49.696;10.808;2022-07-09T05:07:50;99419.91;;;17.49;69.01
64080;BME280;51042;49.696;10.808;2022-07-09T05:10:16;99432.06;;;17.42;68.89
64080;BME280;51042;49.696;10.808;2022-07-09T05:12:42;99423.19;;;17.57;68.50
64080;BME280;51042;49.696;10.808;2022-07-09T05:15:08;99429.03;;;17.99;67.31
64080;BME280;51042;49.696;10.808;2022-07-09T05:17:34;99425.59;;;19.13;63.39
64080;BME280;51042;49.696;10.808;2022-07-09T05:20:01;99433.09;;;20.68;58.54
64080;BME280;51042;49.696;10.808;2022-07-09T05:22:29;99441.88;;;22.33;52.80
64080;BME280;51042;49.696;10.808;2022-07-09T05:24:58;99442.97;;;22.42;51.57
64080;BME280;51042;49.696;10.808;2022-07-09T05:27:24;99459.16;;;21.47;54.23
64080;BME280;51042;49.696;10.808;2022-07-09T05:29:50;99449.44;;;21.43;54.71
64080;BME280;51042;49.696;10.808;2022-07-09T05:32:15;99453.84;;;21.05;55.61
64080;BME280;51042;49.696;10.808;2022-07-09T05:34:41;99444.72;;;20.04;57.74
64080;BME280;51042;49.696;10.808;2022-07-09T05:37:06;99446.72;;;20.27;58.42
64080;BME280;51042;49.696;10.808;2022-07-09T05:39:32;99440.00;;;21.75;54.21
64080;BME280;51042;49.696;10.808;2022-07-09T05:41:57;99444.44;;;22.17;52.42
64080;BME280;51042;49.696;10.808;2022-07-09T05:44:23;99440.09;;;23.02;50.11
64080;BME280;51042;49.696;10.808;2022-07-09T05:46:48;99442.53;;;23.46;49.21
64080;BME280;51042;49.696;10.808;2022-07-09T05:49:13;99447.56;;;23.11;49.01
64080;BME280;51042;49.696;10.808;2022-07-09T05:51:39;99454.25;;;22.27;51.72
64080;BME280;51042;49.696;10.808;2022-07-09T05:54:04;99448.22;;;21.79;53.25
64080;BME280;51042;49.696;10.808;2022-07-09T05:56:29;99441.91;;;21.34;54.43
64080;BME280;51042;49.696;10.808;2022-07-09T05:58:55;99442.56;;;20.70;55.30
64080;BME280;51042;49.696;10.808;2022-07-09T06:01:20;99442.25;;;20.54;56.96
64080;BME280;51042;49.696;10.808;2022-07-09T06:03:45;99444.13;;;21.01;55.75
64080;BME280;51042;49.696;10.808;2022-07-09T06:06:12;99447.47;;;21.05;55.82
64080;BME280;51042;49.696;10.808;2022-07-09T06:08:37;99437.53;;;22.32;52.38
64080;BME280;51042;49.696;10.808;2022-07-09T06:11:03;99440.84;;;23.60;49.03
64080;BME280;51042;49.696;10.808;2022-07-09T06:13:28;99442.53;;;25.07;44.88
64080;BME280;51042;49.696;10.808;2022-07-09T06:15:54;99438.22;;;24.25;46.42
64080;BME280;51042;49.696;10.808;2022-07-09T06:18:19;99440.84;;;24.51;46.74
64080;BME280;51042;49.696;10.808;2022-07-09T06:20:45;99446.31;;;24.88;45.08
64080;BME280;51042;49.696;10.808;2022-07-09T06:23:11;99442.56;;;23.83;47.44
64080;BME280;51042;49.696;10.808;2022-07-09T06:25:37;99442.59;;;23.00;49.82
64080;BME280;51042;49.696;10.808;2022-07-09T06:28:03;99439.97;;;21.55;53.76
64080;BME280;51042;49.696;10.808;2022-07-09T06:30:29;99434.00;;;21.62;54.25
64080;BME280;51042;49.696;10.808;2022-07-09T06:32:54;99431.75;;;22.62;51.99
64080;BME280;51042;49.696;10.808;2022-07-09T06:35:19;99425.41;;;23.44;49.65
64080;BME280;51042;49.696;10.808;2022-07-09T06:37:45;99419.47;;;23.63;48.97
64080;BME280;51042;49.696;10.808;2022-07-09T06:40:10;99416.41;;;24.09;47.85
64080;BME280;51042;49.696;10.808;2022-07-09T06:42:35;99428.38;;;23.61;48.11
64080;BME280;51042;49.696;10.808;2022-07-09T06:45:01;99422.19;;;22.94;50.75
64080;BME280;51042;49.696;10.808;2022-07-09T06:47:26;99426.41;;;23.10;49.64
64080;BME280;51042;49.696;10.808;2022-07-09T06:49:51;99425.44;;;22.87;50.32
64080;BME280;51042;49.696;10.808;2022-07-09T06:52:17;99419.31;;;23.14;49.64
64080;BME280;51042;49.696;10.808;2022-07-09T06:54:42;99420.19;;;23.26;49.56
64080;BME280;51042;49.696;10.808;2022-07-09T06:57:07;99416.22;;;23.38;50.17
64080;BME280;51042;49.696;10.808;2022-07-09T06:59:35;99423.56;;;23.36;50.83
64080;BME280;51042;49.696;10.808;2022-07-09T07:02:00;99418.16;;;23.58;50.71
64080;BME280;51042;49.696;10.808;2022-07-09T07:04:25;99416.66;;;23.00;51.04
64080;BME280;51042;49.696;10.808;2022-07-09T07:06:51;99421.75;;;23.01;50.92
64080;BME280;51042;49.696;10.808;2022-07-09T07:09:16;99417.03;;;22.21;53.49
64080;BME280;51042;49.696;10.808;2022-07-09T07:11:48;99411.88;;;22.34;52.84
64080;BME280;51042;49.696;10.808;2022-07-09T07:14:14;99406.66;;;22.93;51.26
64080;BME280;51042;49.696;10.808;2022-07-09T07:16:40;99407.97;;;23.24;49.34
64080;BME280;51042;49.696;10.808;2022-07-09T07:19:06;99418.00;;;23.73;48.40
64080;BME280;51042;49.696;10.808;2022-07-09T07:21:32;99413.03;;;23.51;48.37
64080;BME280;51042;49.696;10.808;2022-07-09T07:23:57;99414.56;;;23.52;49.13
64080;BME280;51042;49.696;10.808;2022-07-09T07:26:22;99412.53;;;23.52;48.54
64080;BME280;51042;49.696;10.808;2022-07-09T07:28:47;99409.16;;;23.48;48.57
64080;BME280;51042;49.696;10.808;2022-07-09T07:31:14;99402.97;;;23.39;48.83
64080;BME280;51042;49.696;10.808;2022-07-09T07:33:39;99411.59;;;23.04;49.25
64080;BME280;51042;49.696;10.808;2022-07-09T07:36:04;99405.00;;;23.07;50.25
64080;BME280;51042;49.696;10.808;2022-07-09T07:38:30;99408.34;;;23.11;49.82
64080;BME280;51042;49.696;10.808;2022-07-09T07:40:55;99399.75;;;23.20;49.19
64080;BME280;51042;49.696;10.808;2022-07-09T07:43:21;99397.41;;;23.44;48.66
64080;BME280;51042;49.696;10.808;2022-07-09T07:45:46;99394.66;;;23.50;48.07
64080;BME280;51042;49.696;10.808;2022-07-09T07:48:11;99397.09;;;23.37;48.63
64080;BME280;51042;49.696;10.808;2022-07-09T07:50:37;99386.63;;;23.69;47.49
64080;BME280;51042;49.696;10.808;2022-07-09T07:53:04;99388.50;;;23.46;48.26
64080;BME280;51042;49.696;10.808;2022-07-09T07:55:30;99388.50;;;23.46;48.03
64080;BME280;51042;49.696;10.808;2022-07-09T07:57:55;99395.78;;;23.64;48.49
64080;BME280;51042;49.696;10.808;2022-07-09T08:00:21;99387.19;;;23.78;47.45
64080;BME280;51042;49.696;10.808;2022-07-09T08:02:47;99389.00;;;24.29;46.72
64080;BME280;51042;49.696;10.808;2022-07-09T08:05:12;99387.22;;;24.43;45.87
64080;BME280;51042;49.696;10.808;2022-07-09T08:07:37;99388.53;;;24.48;45.69
64080;BME280;51042;49.696;10.808;2022-07-09T08:10:03;99378.66;;;24.04;46.02
64080;BME280;51042;49.696;10.808;2022-07-09T08:12:29;99382.16;;;23.88;46.37
64080;BME280;51042;49.696;10.808;2022-07-09T08:14:54;99379.97;;;24.14;46.01
64080;BME280;51042;49.696;10.808;2022-07-09T08:17:20;99384.91;;;24.25;45.67
64080;BME280;51042;49.696;10.808;2022-07-09T08:19:45;99382.53;;;23.64;46.28
64080;BME280;51042;49.696;10.808;2022-07-09T08:22:10;99380.47;;;22.96;47.99
64080;BME280;51042;49.696;10.808;2022-07-09T08:24:36;99368.88;;;22.57;48.48
64080;BME280;51042;49.696;10.808;2022-07-09T08:27:01;99383.31;;;22.30;48.14
64080;BME280;51042;49.696;10.808;2022-07-09T08:29:26;99368.13;;;21.76;48.16
64080;BME280;51042;49.696;10.808;2022-07-09T08:31:52;99373.19;;;22.12;49.10
64080;BME280;51042;49.696;10.808;2022-07-09T08:34:17;99367.63;;;22.84;46.24
64080;BME280;51042;49.696;10.808;2022-07-09T08:36:43;99367.28;;;23.71;45.57
64080;BME280;51042;49.696;10.808;2022-07-09T08:39:09;99365.72;;;23.64;45.58
64080;BME280;51042;49.696;10.808;2022-07-09T08:41:35;99355.88;;;24.45;43.75
64080;BME280;51042;49.696;10.808;2022-07-09T08:44:01;99360.22;;;24.51;42.96
64080;BME280;51042;49.696;10.808;2022-07-09T08:46:28;99353.03;;;24.33;43.64
64080;BME280;51042;49.696;10.808;2022-07-09T08:48:54;99355.53;;;24.20;44.13
64080;BME280;51042;49.696;10.808;2022-07-09T08:51:20;99347.91;;;23.73;45.85
64080;BME280;51042;49.696;10.808;2022-07-09T08:53:47;99340.28;;;23.73;45.13
64080;BME280;51042;49.696;10.808;2022-07-09T08:56:12;99336.00;;;23.83;44.72
64080;BME280;51042;49.696;10.808;2022-07-09T08:58:38;99339.69;;;24.12;44.90
64080;BME280;51042;49.696;10.808;2022-07-09T09:01:03;99334.06;;;24.12;44.80
64080;BME280;51042;49.696;10.808;2022-07-09T09:03:30;99337.94;;;24.20;43.77
64080;BME280;51042;49.696;10.808;2022-07-09T09:05:59;99338.94;;;24.17;43.22
64080;BME280;51042;49.696;10.808;2022-07-09T09:08:32;99344.84;;;24.24;43.27
64080;BME280;51042;49.696;10.808;2022-07-09T09:10:59;99339.09;;;24.84;43.70
64080;BME280;51042;49.696;10.808;2022-07-09T09:13:24;99336.56;;;24.91;41.86
64080;BME280;51042;49.696;10.808;2022-07-09T09:15:50;99324.75;;;25.59;41.75
64080;BME280;51042;49.696;10.808;2022-07-09T09:18:15;99325.25;;;25.58;40.97
64080;BME280;51042;49.696;10.808;2022-07-09T09:20:44;99329.53;;;25.76;41.00
64080;BME280;51042;49.696;10.808;2022-07-09T09:23:15;99326.78;;;25.65;39.74
64080;BME280;51042;49.696;10.808;2022-07-09T09:25:41;99318.31;;;25.70;39.97
64080;BME280;51042;49.696;10.808;2022-07-09T09:28:06;99314.44;;;25.84;39.40
64080;BME280;51042;49.696;10.808;2022-07-09T09:30:32;99320.91;;;25.51;40.44
64080;BME280;51042;49.696;10.808;2022-07-09T09:33:05;99326.81;;;24.87;40.62
64080;BME280;51042;49.696;10.808;2022-07-09T09:35:32;99316.09;;;24.63;41.80
64080;BME280;51042;49.696;10.808;2022-07-09T09:37:58;99313.47;;;24.20;42.92
64080;BME280;51042;49.696;10.808;2022-07-09T09:40:25;99311.84;;;23.97;44.27
64080;BME280;51042;49.696;10.808;2022-07-09T09:42:51;99320.53;;;23.51;45.31
64080;BME280;51042;49.696;10.808;2022-07-09T09:45:17;99329.31;;;23.33;46.40
64080;BME280;51042;49.696;10.808;2022-07-09T09:47:50;99332.75;;;23.48;46.28
64080;BME280;51042;49.696;10.808;2022-07-09T09:50:21;99333.19;;;23.41;46.03
64080;BME280;51042;49.696;10.808;2022-07-09T09:52:48;99319.97;;;23.04;46.97
64080;BME280;51042;49.696;10.808;2022-07-09T09:55:15;99317.59;;;23.29;46.17
64080;BME280;51042;49.696;10.808;2022-07-09T09:57:42;99313.28;;;23.76;44.97
64080;BME280;51042;49.696;10.808;2022-07-09T10:00:08;99314.56;;;23.75;44.97
64080;BME280;51042;49.696;10.808;2022-07-09T10:02:35;99326.91;;;23.51;46.04
64080;BME280;51042;49.696;10.808;2022-07-09T10:05:03;99311.59;;;23.10;47.60
64080;BME280;51042;49.696;10.808;2022-07-09T10:07:28;99311.25;;;23.34;47.72
64080;BME280;51042;49.696;10.808;2022-07-09T10:09:55;99312.47;;;23.27;46.84
64080;BME280;51042;49.696;10.808;2022-07-09T10:12:25;99316.91;;;23.08;46.69
64080;BME280;51042;49.696;10.808;2022-07-09T10:14:54;99314.66;;;23.12;46.48
64080;BME280;51042;49.696;10.808;2022-07-09T10:17:20;99317.31;;;23.27;46.41
64080;BME280;51042;49.696;10.808;2022-07-09T10:19:53;99322.91;;;23.27;45.49
64080;BME280;51042;49.696;10.808;2022-07-09T10:22:37;99320.38;;;23.29;46.49
64080;BME280;51042;49.696;10.808;2022-07-09T10:25:05;99315.31;;;23.33;46.40
64080;BME280;51042;49.696;10.808;2022-07-09T10:27:41;99312.59;;;23.07;46.35
64080;BME280;51042;49.696;10.808;2022-07-09T10:30:23;99307.56;;;23.16;47.77
64080;BME280;51042;49.696;10.808;2022-07-09T10:33:10;99310.75;;;22.98;47.15
64080;BME280;51042;49.696;10.808;2022-07-09T10:35:46;99307.69;;;22.70;47.71
64080;BME280;51042;49.696;10.808;2022-07-09T10:38:14;99303.44;;;22.49;46.50
64080;BME280;51042;49.696;10.808;2022-07-09T10:40:41;99306.06;;;22.32;48.16
64080;BME280;51042;49.696;10.808;2022-07-09T10:43:09;99311.44;;;22.10;48.93
64080;BME280;51042;49.696;10.808;2022-07-09T10:45:41;99307.50;;;22.22;48.58
64080;BME280;51042;49.696;10.808;2022-07-09T10:48:09;99315.78;;;22.37;48.59
64080;BME280;51042;49.696;10.808;2022-07-09T10:50:38;99309.41;;;22.36;48.97
64080;BME280;51042;49.696;10.808;2022-07-09T10:53:05;99319.06;;;22.35;48.79
64080;BME280;51042;49.696;10.808;2022-07-09T10:55:30;99317.44;;;22.03;48.82
64080;BME280;51042;49.696;10.808;2022-07-09T10:57:56;99315.06;;;22.16;48.52
64080;BME280;51042;49.696;10.808;2022-07-09T11:00:25;99309.25;;;22.20;48.04
64080;BME280;51042;49.696;10.808;2022-07-09T11:02:53;99311.44;;;22.36;47.70
64080;BME280;51042;49.696;10.808;2022-07-09T11:05:30;99308.75;;;22.21;47.81
64080;BME280;51042;49.696;10.808;2022-07-09T11:08:03;99299.41;;;22.30;46.87
64080;BME280;51042;49.696;10.808;2022-07-09T11:10:30;99303.81;;;22.62;46.90
64080;BME280;51042;49.696;10.808;2022-07-09T11:12:58;99297.38;;;22.82;46.84
64080;BME280;51042;49.696;10.808;2022-07-09T11:15:26;99296.38;;;22.59;47.62
64080;BME280;51042;49.696;10.808;2022-07-09T11:17:57;99301.25;;;22.64;47.31
64080;BME280;51042;49.696;10.808;2022-07-09T11:20:23;99304.03;;;22.85;47.26
64080;BME280;51042;49.696;10.808;2022-07-09T11:22:49;99290.66;;;23.00;46.64
64080;BME280;51042;49.696;10.808;2022-07-09T11:25:15;99300.31;;;22.99;46.30
64080;BME280;51042;49.696;10.808;2022-07-09T11:27:41;99289.09;;;22.93;46.54
64080;BME280;51042;49.696;10.808;2022-07-09T11:30:16;99285.41;;;22.76;46.96
64080;BME280;51042;49.696;10.808;2022-07-09T11:32:42;99282.63;;;22.82;46.84
64080;BME280;51042;49.696;10.808;2022-07-09T11:35:09;99282.97;;;22.95;47.29
64080;BME280;51042;49.696;10.808;2022-07-09T11:37:36;99287.38;;;23.07;46.42
64080;BME280;51042;49.696;10.808;2022-07-09T11:40:02;99283.56;;;23.04;46.59
64080;BME280;51042;49.696;10.808;2022-07-09T11:42:29;99282.72;;;23.30;46.34
64080;BME280;51042;49.696;10.808;2022-07-09T11:44:57;99279.94;;;23.83;45.53
64080;BME280;51042;49.696;10.808;2022-07-09T11:47:31;99277.44;;;24.13;45.04
64080;BME280;51042;49.696;10.808;2022-07-09T11:50:05;99281.13;;;24.69;43.11
64080;BME280;51042;49.696;10.808;2022-07-09T11:52:35;99267.34;;;25.10;42.47
64080;BME280;51042;49.696;10.808;2022-07-09T11:57:29;99258.53;;;25.58;40.87
64080;BME280;51042;49.696;10.808;2022-07-09T11:59:55;99259.72;;;26.32;41.00
64080;BME280;51042;49.696;10.808;2022-07-09T12:02:29;99263.38;;;26.92;38.50
64080;BME280;51042;49.696;10.808;2022-07-09T12:04:57;99253.91;;;26.84;38.46
64080;BME280;51042;49.696;10.808;2022-07-09T12:07:23;99246.50;;;26.57;38.61
64080;BME280;51042;49.696;10.808;2022-07-09T12:10:02;99244.78;;;26.42;39.00
64080;BME280;51042;49.696;10.808;2022-07-09T12:12:30;99233.34;;;25.88;39.58
64080;BME280;51042;49.696;10.808;2022-07-09T12:14:56;99234.63;;;25.87;38.50
64080;BME280;51042;49.696;10.808;2022-07-09T12:17:25;99222.63;;;26.28;37.15
64080;BME280;51042;49.696;10.808;2022-07-09T12:19:52;99216.25;;;26.27;37.00
64080;BME280;51042;49.696;10.808;2022-07-09T12:22:18;99219.34;;;26.24;36.94
64080;BME280;51042;49.696;10.808;2022-07-09T12:24:44;99211.03;;;26.42;37.88
64080;BME280;51042;49.696;10.808;2022-07-09T12:27:10;99224.50;;;26.14;36.45
64080;BME280;51042;49.696;10.808;2022-07-09T12:29:35;99213.00;;;25.71;38.36
64080;BME280;51042;49.696;10.808;2022-07-09T12:32:01;99206.38;;;25.63;36.97
64080;BME280;51042;49.696;10.808;2022-07-09T12:34:26;99216.66;;;25.49;37.11
64080;BME280;51042;49.696;10.808;2022-07-09T12:36:52;99214.84;;;26.04;37.33
64080;BME280;51042;49.696;10.808;2022-07-09T12:39:17;99196.84;;;26.24;37.01
64080;BME280;51042;49.696;10.808;2022-07-09T12:41:43;99195.25;;;26.28;36.43
64080;BME280;51042;49.696;10.808;2022-07-09T12:44:08;99191.25;;;26.13;37.23
64080;BME280;51042;49.696;10.808;2022-07-09T12:46:33;99184.03;;;25.82;37.77
64080;BME280;51042;49.696;10.808;2022-07-09T12:48:59;99180.41;;;25.40;38.09